createdAt,value
2019-03-04T00:03:57.725Z,30.00
2019-03-04T00:08:49.145Z,30.00
2019-03-04T00:13:40.494Z,29.20
2019-03-04T00:18:31.872Z,29.70
2019-03-04T00:23:23.210Z,27.70
2019-03-04T00:28:14.667Z,27.40
2019-03-04T00:33:06.079Z,28.20
2019-03-04T00:37:57.445Z,28.80
2019-03-04T00:42:48.802Z,29.00
2019-03-04T00:47:40.223Z,28.80
2019-03-04T00:52:31.611Z,28.30
2019-03-04T00:57:23.016Z,27.40
2019-03-04T01:02:16.643Z,25.70
2019-03-04T01:07:08.084Z,25.10
2019-03-04T01:11:59.492Z,25.60
2019-03-04T01:16:50.867Z,24.70
2019-03-04T01:21:42.311Z,24.90
2019-03-04T01:26:33.605Z,24.90
2019-03-04T01:31:25.007Z,25.10
2019-03-04T01:36:16.380Z,24.00
2019-03-04T01:41:07.797Z,24.20
2019-03-04T01:45:59.186Z,22.40
2019-03-04T01:50:50.578Z,21.90
2019-03-04T01:55:42.003Z,22.20
2019-03-04T02:00:33.343Z,21.80
2019-03-04T02:05:24.701Z,21.40
2019-03-04T02:10:16.099Z,21.10
2019-03-04T02:15:07.517Z,22.40
2019-03-04T02:19:58.936Z,21.70
2019-03-04T02:24:50.292Z,21.90
2019-03-04T02:29:41.706Z,22.80
2019-03-04T02:34:33.077Z,22.40
2019-03-04T02:39:24.506Z,22.50
2019-03-04T02:44:15.981Z,22.70
2019-03-04T02:49:07.323Z,23.20
2019-03-04T02:53:58.651Z,23.70
2019-03-04T02:58:50.069Z,24.20
2019-03-04T03:03:41.456Z,22.70
2019-03-04T03:08:32.869Z,22.80
2019-03-04T03:13:24.202Z,23.00
2019-03-04T03:18:15.662Z,23.40
2019-03-04T03:23:09.196Z,22.90
2019-03-04T03:28:00.737Z,22.50
2019-03-04T03:32:52.181Z,22.60
2019-03-04T03:37:43.486Z,22.20
2019-03-04T03:42:34.899Z,22.20
2019-03-04T03:47:26.250Z,21.40
2019-03-04T03:52:17.704Z,21.00
2019-03-04T03:57:09.033Z,21.30
2019-03-04T04:02:00.459Z,21.20
2019-03-04T04:06:51.830Z,21.30
2019-03-04T04:11:43.224Z,21.50
2019-03-04T04:16:34.672Z,20.80
2019-03-04T04:21:25.994Z,20.20
2019-03-04T04:26:17.384Z,20.40
2019-03-04T04:31:08.823Z,20.00
2019-03-04T04:36:00.188Z,19.50
2019-03-04T04:40:51.566Z,19.10
2019-03-04T04:45:42.908Z,19.50
2019-03-04T04:50:34.311Z,19.20
2019-03-04T04:55:25.671Z,19.10
2019-03-04T05:00:17.007Z,18.30
2019-03-04T05:10:02.083Z,18.10
2019-03-04T05:14:53.480Z,18.00
2019-03-04T05:19:44.892Z,18.60
2019-03-04T05:24:36.243Z,19.40
2019-03-04T05:29:27.696Z,18.50
2019-03-04T05:34:19.012Z,18.70
2019-03-04T05:39:10.422Z,20.80
2019-03-04T05:44:01.845Z,20.50
2019-03-04T05:48:53.186Z,20.90
2019-03-04T05:53:44.645Z,20.60
2019-03-04T05:58:36.003Z,21.00
2019-03-04T06:03:27.383Z,21.60
2019-03-04T06:08:18.776Z,21.50
2019-03-04T06:13:10.129Z,21.20
2019-03-04T06:18:01.567Z,21.80
2019-03-04T06:22:52.952Z,20.80
2019-03-04T06:27:44.393Z,20.10
2019-03-04T06:32:35.761Z,20.30
2019-03-04T06:37:27.123Z,20.30
2019-03-04T06:42:18.503Z,19.90
2019-03-04T06:47:09.901Z,20.00
2019-03-04T06:52:01.267Z,20.30
2019-03-04T06:56:54.991Z,21.70
2019-03-04T07:01:44.271Z,22.00
2019-03-04T07:06:35.657Z,21.40
2019-03-04T07:11:27.141Z,20.60
2019-03-04T07:16:18.485Z,21.10
2019-03-04T07:21:12.058Z,20.90
2019-03-04T07:26:03.446Z,19.00
2019-03-04T07:30:57.163Z,17.50
2019-03-04T07:35:48.588Z,17.40
2019-03-04T07:40:39.971Z,15.60
2019-03-04T07:45:31.406Z,15.80
2019-03-04T07:50:22.845Z,16.30
2019-03-04T07:55:14.226Z,16.70
2019-03-04T08:00:05.584Z,17.80
2019-03-04T08:04:56.921Z,17.80
2019-03-04T08:09:50.668Z,25.40
2019-03-04T08:14:42.135Z,35.10
2019-03-04T08:19:33.513Z,41.90
2019-03-04T08:24:24.877Z,43.10
2019-03-04T08:29:16.239Z,39.40
2019-03-04T08:34:09.827Z,39.60
2019-03-04T08:38:58.994Z,44.40
2019-03-04T08:43:50.414Z,54.60
2019-03-04T08:48:44.038Z,55.50
2019-03-04T08:53:37.686Z,50.00
2019-03-04T08:58:29.098Z,46.20
2019-03-04T09:03:20.505Z,42.60
2019-03-04T09:08:11.914Z,38.50
2019-03-04T09:13:03.297Z,37.20
2019-03-04T09:17:54.696Z,37.60
2019-03-04T09:22:46.132Z,36.30
2019-03-04T09:27:39.698Z,37.00
2019-03-04T09:32:31.100Z,34.80
2019-03-04T09:37:22.492Z,33.50
2019-03-04T09:42:13.923Z,33.30
2019-03-04T09:47:05.291Z,31.00
2019-03-04T09:56:48.018Z,31.40
2019-03-04T10:01:39.475Z,30.50
2019-03-04T10:06:30.873Z,29.60
2019-03-04T10:11:22.171Z,28.20
2019-03-04T10:16:19.326Z,29.00
2019-03-04T10:21:04.965Z,29.40
2019-03-04T10:25:56.386Z,29.00
2019-03-04T10:30:47.749Z,27.60
2019-03-04T10:35:39.216Z,27.40
2019-03-04T10:40:30.603Z,26.40
2019-03-04T10:45:22.007Z,26.70
2019-03-04T10:50:13.475Z,27.00
2019-03-04T10:55:04.821Z,28.20
2019-03-04T10:59:56.242Z,27.30
2019-03-04T11:04:47.636Z,27.30
2019-03-04T11:09:39.010Z,26.40
2019-03-04T11:14:30.424Z,26.80
2019-03-04T11:19:21.839Z,26.40
2019-03-04T11:24:15.435Z,27.00
2019-03-04T11:29:06.862Z,25.60
2019-03-04T11:33:58.260Z,26.20
2019-03-04T11:38:49.659Z,25.00
2019-03-04T11:43:41.056Z,24.40
2019-03-04T11:48:32.508Z,23.80
2019-03-04T11:53:23.788Z,23.10
2019-03-04T11:58:15.238Z,23.30
2019-03-04T12:03:06.604Z,23.80
2019-03-04T12:07:58.032Z,22.90
2019-03-04T12:12:49.388Z,23.60
2019-03-04T12:17:45.284Z,25.00
2019-03-04T12:22:36.698Z,25.70
2019-03-04T12:27:28.078Z,26.00
2019-03-04T12:32:19.475Z,25.90
2019-03-04T12:37:10.876Z,26.20
2019-03-04T12:42:02.276Z,25.10
2019-03-04T12:46:53.744Z,25.90
2019-03-04T12:51:44.951Z,25.20
2019-03-04T12:56:36.464Z,25.10
2019-03-04T13:01:27.927Z,23.80
2019-03-04T13:06:19.327Z,23.30
2019-03-04T13:11:12.946Z,23.40
2019-03-04T13:16:04.354Z,23.10
2019-03-04T13:21:50.039Z,21.50
2019-03-04T13:26:41.447Z,20.30
2019-03-04T13:31:32.839Z,18.90
2019-03-04T13:36:28.764Z,16.10
2019-03-04T13:41:20.187Z,15.30
2019-03-04T13:46:11.492Z,14.60
2019-03-04T13:51:02.955Z,14.30
2019-03-04T13:55:54.284Z,13.40
2019-03-04T14:00:45.756Z,13.50
2019-03-04T14:05:37.107Z,13.70
2019-03-04T14:10:28.567Z,13.80
2019-03-04T14:15:19.937Z,13.10
2019-03-04T14:20:11.343Z,13.40
2019-03-04T14:25:02.761Z,12.90
2019-03-04T14:29:54.095Z,14.30
2019-03-04T14:34:45.455Z,14.40
2019-03-04T14:39:36.917Z,14.10
2019-03-04T14:44:28.252Z,12.80
2019-03-04T14:49:19.675Z,11.90
2019-03-04T14:54:11.031Z,12.40
2019-03-04T14:59:11.702Z,13.40
2019-03-04T15:03:56.098Z,13.80
2019-03-04T15:08:49.734Z,14.70
2019-03-04T15:13:41.201Z,15.40
2019-03-04T15:18:35.153Z,16.50
2019-03-04T15:23:26.381Z,17.00
2019-03-04T15:28:17.781Z,19.30
2019-03-04T15:33:19.234Z,24.40
2019-03-04T15:38:02.866Z,31.40
2019-03-04T15:42:54.319Z,40.70
2019-03-04T15:47:47.935Z,63.00
2019-03-04T15:52:39.393Z,93.30
2019-03-04T15:57:32.976Z,94.90
2019-03-04T16:02:24.508Z,96.80
2019-03-04T16:07:18.122Z,96.20
2019-03-04T16:12:11.759Z,96.50
2019-03-04T16:17:03.179Z,97.60
2019-03-04T16:21:54.616Z,97.60
2019-03-04T16:26:45.974Z,96.90
2019-03-04T16:31:37.436Z,94.50
2019-03-04T16:36:28.792Z,95.10
2019-03-04T16:41:20.171Z,96.20
2019-03-04T16:46:11.530Z,97.80
2019-03-04T16:51:02.922Z,98.60
2019-03-04T16:55:56.494Z,99.90
2019-03-04T17:00:48.009Z,99.90
2019-03-04T17:05:41.665Z,99.90
2019-03-04T17:10:33.102Z,99.90
2019-03-04T17:15:24.549Z,99.90
2019-03-04T17:20:15.908Z,99.90
2019-03-04T17:25:07.287Z,99.90
2019-03-04T17:29:58.663Z,99.90
2019-03-04T17:34:50.117Z,99.90
2019-03-04T17:39:41.510Z,99.90
2019-03-04T17:44:32.927Z,99.90
2019-03-04T17:49:24.250Z,99.90
2019-03-04T17:54:15.638Z,99.90
2019-03-04T17:59:07.045Z,95.50
2019-03-04T18:03:58.462Z,92.70
2019-03-04T18:08:49.900Z,90.80
2019-03-04T18:13:41.272Z,91.70
2019-03-04T18:18:32.748Z,91.10
2019-03-04T18:23:24.003Z,86.40
2019-03-04T18:28:15.457Z,90.00
2019-03-04T18:33:06.847Z,89.90
2019-03-04T18:37:58.258Z,93.70
2019-03-04T18:42:51.843Z,91.90
2019-03-04T18:47:43.288Z,92.00
2019-03-04T18:52:34.779Z,94.00
2019-03-04T18:57:26.079Z,94.90
2019-03-04T19:02:17.625Z,95.30
2019-03-04T19:07:08.887Z,95.00
2019-03-04T19:12:00.328Z,95.50
2019-03-04T19:16:51.657Z,95.80
2019-03-04T19:21:45.341Z,94.90
2019-03-04T19:26:36.760Z,93.80
2019-03-04T19:31:28.143Z,95.50
2019-03-04T19:36:21.783Z,97.60
2019-03-04T19:41:15.529Z,97.10
2019-03-04T19:46:09.209Z,98.80
2019-03-04T19:51:00.802Z,99.90
2019-03-04T19:55:52.167Z,99.90
2019-03-04T20:00:43.613Z,99.90
2019-03-04T20:05:34.909Z,99.90
2019-03-04T20:10:28.587Z,99.90
2019-03-04T20:15:20.124Z,99.90
2019-03-04T20:20:11.535Z,99.90
2019-03-04T20:25:02.993Z,99.90
2019-03-04T20:29:54.332Z,99.90
2019-03-04T20:34:45.755Z,99.90
2019-03-04T20:39:37.135Z,99.90
2019-03-04T20:44:28.551Z,99.90
2019-03-04T20:49:19.968Z,99.90
2019-03-04T20:54:11.276Z,99.90
2019-03-04T20:59:04.915Z,99.90
2019-03-04T21:03:56.375Z,99.90
2019-03-04T21:08:47.845Z,99.90
2019-03-04T21:13:39.282Z,99.90
2019-03-04T21:18:30.762Z,99.90
2019-03-04T21:23:22.089Z,99.90
2019-03-04T21:28:15.731Z,99.90
2019-03-04T21:33:07.281Z,99.90
2019-03-04T21:37:58.706Z,99.90
2019-03-04T21:47:41.542Z,99.90
2019-03-04T21:52:32.896Z,99.90
2019-03-04T21:57:24.300Z,99.90
2019-03-04T22:02:15.734Z,99.90
2019-03-04T22:07:09.505Z,99.90
2019-03-04T22:12:01.097Z,99.90
2019-03-04T22:16:52.419Z,99.90
2019-03-04T22:21:43.845Z,99.90
2019-03-04T22:26:35.218Z,99.90
2019-03-04T22:31:26.731Z,99.90
2019-03-04T22:36:20.298Z,99.90
2019-03-04T22:41:14.348Z,99.90
2019-03-04T22:46:05.372Z,99.90
2019-03-04T22:50:59.112Z,99.90
2019-03-04T22:55:50.532Z,99.90
2019-03-04T23:00:44.245Z,99.90
2019-03-04T23:10:29.284Z,99.10
2019-03-04T23:15:22.883Z,96.00
2019-03-04T23:20:14.302Z,97.20
2019-03-04T23:25:05.712Z,97.10
2019-03-04T23:29:57.129Z,95.60
2019-03-04T23:34:48.488Z,96.50
2019-03-04T23:39:39.833Z,96.70
2019-03-04T23:44:31.234Z,95.60
2019-03-04T23:49:22.666Z,95.20
2019-03-04T23:54:14.038Z,93.50
2019-03-04T23:59:05.430Z,93.10
